Time;durP1;ratioP1;P1;durP2;ratioP2;P2;SDS_P1;SDS_P2;PMS_P1;PMS_P2;Temp;Humidity;BMP_temperature;BMP_pressure;BME280_temperature;BME280_humidity;BME280_pressure;Samples;Min_cycle;Max_cycle;Signal;HPM_P1;HPM_P2
2021/12/17 00:00:57;;;;;;;14.90;6.40;;;7.30;99.90;;;;;;4952962;28;20528;-50
2021/12/17 00:03:33;;;;;;;16.77;7.07;;;7.30;99.90;;;;;;4952768;28;20421;-51
2021/12/17 00:06:14;;;;;;;18.20;7.23;;;7.20;99.90;;;;;;4951511;29;20882;-51
2021/12/17 00:08:43;;;;;;;21.67;8.27;;;7.20;99.90;;;;;;4952537;29;20421;-51
2021/12/17 00:11:10;;;;;;;23.53;7.13;;;7.30;99.90;;;;;;4952581;29;20974;-50
2021/12/17 00:13:37;;;;;;;13.93;6.93;;;7.20;99.90;;;;;;4952540;29;20437;-50
2021/12/17 00:16:12;;;;;;;18.20;6.77;;;7.20;99.90;;;;;;4952363;28;20539;-51
2021/12/17 00:18:51;;;;;;;14.97;6.87;;;7.20;99.90;;;;;;4952504;29;20676;-51
2021/12/17 00:43:56;;;;;;;17.07;8.30;;;7.10;99.90;;;;;;4952186;29;20992;-50
2021/12/17 00:48:45;;;;;;;17.67;7.30;;;7.00;99.90;;;;;;4952558;29;20457;-50
2021/12/17 00:53:44;;;;;;;15.67;6.50;;;7.00;99.90;;;;;;4951873;28;20707;-50
2021/12/17 00:56:09;;;;;;;20.07;7.27;;;7.00;99.90;;;;;;4952241;29;20479;-51
2021/12/17 00:58:35;;;;;;;14.97;6.43;;;7.00;99.90;;;;;;4952263;28;20221;-50
2021/12/17 01:01:01;;;;;;;16.00;7.20;;;7.00;99.90;;;;;;4952160;29;20244;-50
2021/12/17 01:03:27;;;;;;;18.77;7.60;;;7.00;99.90;;;;;;4950817;28;20554;-50
2021/12/17 01:05:52;;;;;;;15.00;7.60;;;7.00;99.90;;;;;;4952043;28;20723;-50
2021/12/17 01:08:18;;;;;;;18.97;7.47;;;7.00;99.90;;;;;;4952132;28;20708;-51
2021/12/17 01:10:49;;;;;;;19.47;7.90;;;7.00;99.90;;;;;;4954754;29;20695;-50
2021/12/17 01:13:14;;;;;;;20.50;7.60;;;7.00;99.90;;;;;;4955999;28;20761;-50
2021/12/17 01:15:42;;;;;;;19.97;8.20;;;7.00;99.90;;;;;;4955835;29;20430;-51
2021/12/17 01:18:13;;;;;;;25.20;8.40;;;7.10;99.90;;;;;;4956165;29;20666;-50
2021/12/17 01:36:43;;;;;;;22.70;8.63;;;7.00;99.90;;;;;;4955602;28;20533;-50
2021/12/17 01:44:17;;;;;;;19.73;8.30;;;7.10;99.90;;;;;;4955403;28;20911;-51
2021/12/17 01:46:44;;;;;;;21.83;8.80;;;7.10;99.90;;;;;;4955444;29;20441;-50
2021/12/17 01:59:52;;;;;;;18.20;7.60;;;7.10;99.90;;;;;;4954996;29;20464;-50
2021/12/17 02:02:18;;;;;;;17.53;7.30;;;7.10;99.90;;;;;;4954933;29;20515;-52
2021/12/17 02:04:44;;;;;;;15.37;6.77;;;7.10;99.90;;;;;;4954919;28;20445;-51
2021/12/17 02:07:10;;;;;;;13.77;6.80;;;7.10;99.90;;;;;;4954775;29;20644;-50
2021/12/17 02:28:55;;;;;;;16.53;6.77;;;7.10;99.90;;;;;;4954659;29;20437;-50
2021/12/17 02:33:49;;;;;;;15.90;6.30;;;7.10;99.90;;;;;;4953926;28;20444;-51
2021/12/17 02:36:19;;;;;;;17.77;6.67;;;7.10;99.90;;;;;;4954316;29;20889;-51
2021/12/17 02:38:44;;;;;;;15.10;6.10;;;7.20;99.90;;;;;;4954300;28;20678;-51
2021/12/17 02:46:39;;;;;;;14.20;5.70;;;7.10;99.90;;;;;;4955027;29;20909;-50
2021/12/17 02:49:07;;;;;;;16.83;5.40;;;7.10;99.90;;;;;;4954242;29;20441;-50
2021/12/17 02:51:33;;;;;;;15.87;6.03;;;7.10;99.90;;;;;;4954392;29;20332;-50
2021/12/17 02:53:59;;;;;;;15.70;5.90;;;7.10;99.90;;;;;;4954246;28;20422;-50
2021/12/17 02:56:25;;;;;;;13.80;5.77;;;7.20;99.90;;;;;;4953982;28;20449;-51
2021/12/17 02:58:53;;;;;;;11.90;5.87;;;7.10;99.90;;;;;;4953870;28;20765;-50
2021/12/17 03:01:18;;;;;;;15.47;6.40;;;7.10;99.90;;;;;;4953911;29;20428;-50
2021/12/17 03:03:46;;;;;;;13.93;5.40;;;7.10;99.90;;;;;;4953932;29;20624;-50
2021/12/17 03:06:11;;;;;;;20.63;5.63;;;7.10;99.90;;;;;;4954172;28;20182;-50
2021/12/17 03:08:37;;;;;;;16.20;6.47;;;7.20;99.90;;;;;;4954225;28;20469;-50
2021/12/17 03:11:03;;;;;;;15.90;6.20;;;7.20;99.90;;;;;;4953519;28;20192;-50
2021/12/17 03:13:33;;;;;;;19.67;6.30;;;7.20;99.90;;;;;;4953941;28;20189;-50
2021/12/17 03:16:06;;;;;;;13.93;5.50;;;7.10;99.90;;;;;;4953637;29;20528;-50
2021/12/17 03:18:55;;;;;;;18.10;6.10;;;7.10;99.90;;;;;;4953260;29;20855;-50
2021/12/17 03:24:02;;;;;;;13.80;5.23;;;7.00;99.90;;;;;;4953578;29;20423;-50
2021/12/17 03:26:28;;;;;;;15.63;6.33;;;7.00;99.90;;;;;;4953616;29;20837;-51
2021/12/17 03:29:06;;;;;;;16.93;6.87;;;7.00;99.90;;;;;;4953278;29;20855;-50
2021/12/17 03:31:33;;;;;;;12.63;5.20;;;7.00;99.90;;;;;;4953385;28;20417;-50
2021/12/17 03:34:33;;;;;;;11.23;5.03;;;7.00;99.90;;;;;;4952707;29;20903;-50
2021/12/17 03:36:54;;;;;;;14.60;5.30;;;7.00;99.90;;;;;;4950859;29;20560;-50
2021/12/17 03:39:21;;;;;;;13.30;5.43;;;7.00;99.90;;;;;;4952980;28;20839;-50
2021/12/17 03:41:50;;;;;;;12.10;4.23;;;6.90;99.90;;;;;;4953223;29;20516;-50
2021/12/17 03:44:16;;;;;;;10.10;3.60;;;7.00;99.90;;;;;;4952994;28;20424;-51
2021/12/17 03:46:44;;;;;;;9.23;4.17;;;6.90;99.90;;;;;;4952847;28;20433;-50
2021/12/17 03:49:10;;;;;;;7.43;3.53;;;6.90;99.90;;;;;;4952566;29;20198;-50
2021/12/17 03:51:46;;;;;;;8.90;4.27;;;6.90;99.90;;;;;;4952842;29;20991;-50
2021/12/17 03:54:12;;;;;;;9.47;3.93;;;7.00;99.90;;;;;;4952998;28;20612;-50
2021/12/17 03:56:38;;;;;;;8.90;3.80;;;6.90;99.90;;;;;;4951443;28;20675;-50
2021/12/17 03:59:10;;;;;;;10.03;4.27;;;6.90;99.90;;;;;;4952762;29;20198;-50
2021/12/17 04:01:36;;;;;;;8.53;4.30;;;7.00;99.90;;;;;;4952763;29;20288;-50
2021/12/17 04:04:01;;;;;;;11.20;4.00;;;7.00;99.90;;;;;;4952705;29;20500;-52
2021/12/17 04:06:27;;;;;;;12.43;4.50;;;7.00;99.90;;;;;;4952911;29;20418;-50
2021/12/17 04:08:54;;;;;;;8.20;3.60;;;6.90;99.90;;;;;;4952816;29;20758;-51
2021/12/17 04:11:20;;;;;;;5.73;3.10;;;6.90;99.90;;;;;;4952974;29;20188;-50
2021/12/17 04:13:54;;;;;;;5.70;3.03;;;6.90;99.90;;;;;;4952439;29;20899;-51
2021/12/17 04:16:24;;;;;;;7.20;3.33;;;6.90;99.90;;;;;;4952342;29;20687;-50
2021/12/17 04:18:50;;;;;;;5.30;2.33;;;6.90;99.90;;;;;;4952257;29;20911;-50
2021/12/17 04:21:15;;;;;;;4.27;2.70;;;6.90;99.90;;;;;;4952336;28;20433;-50
2021/12/17 04:23:42;;;;;;;8.47;3.40;;;6.90;99.90;;;;;;4952392;29;20825;-50
2021/12/17 04:26:08;;;;;;;9.03;4.77;;;6.80;99.90;;;;;;4952193;29;20656;-51
2021/12/17 04:28:42;;;;;;;6.20;1.97;;;6.80;99.90;;;;;;4952301;29;20413;-51
2021/12/17 04:31:08;;;;;;;6.00;2.67;;;6.90;99.90;;;;;;4952080;29;20457;-50
2021/12/17 04:33:35;;;;;;;4.53;1.53;;;6.80;99.90;;;;;;4952261;29;20410;-50
2021/12/17 04:36:00;;;;;;;3.33;1.50;;;6.80;99.90;;;;;;4952671;29;20477;-50
2021/12/17 04:38:27;;;;;;;4.03;1.90;;;6.80;99.90;;;;;;4952169;29;20824;-50
2021/12/17 04:40:54;;;;;;;3.63;1.70;;;6.70;99.90;;;;;;4952171;29;20184;-51
2021/12/17 04:45:57;;;;;;;4.77;2.23;;;6.70;99.90;;;;;;4952109;28;20410;-50
2021/12/17 04:59:19;;;;;;;4.93;1.80;;;6.70;99.90;;;;;;4951977;29;21018;-50
2021/12/17 05:01:44;;;;;;;3.40;1.47;;;6.70;99.90;;;;;;4952180;29;20425;-50
2021/12/17 05:04:10;;;;;;;4.17;1.87;;;6.60;99.90;;;;;;4952245;29;20764;-50
2021/12/17 05:06:36;;;;;;;3.63;1.90;;;6.60;99.90;;;;;;4952005;29;20186;-50
2021/12/17 05:09:09;;;;;;;4.60;1.80;;;6.50;99.90;;;;;;4951961;28;20229;-50
2021/12/17 05:22:10;;;;;;;3.57;1.80;;;6.50;99.90;;;;;;4951876;29;20904;-50
2021/12/17 05:24:35;;;;;;;5.83;2.60;;;6.50;99.90;;;;;;4951728;28;20775;-50
2021/12/17 05:27:01;;;;;;;3.93;2.17;;;6.50;99.90;;;;;;4951806;29;20424;-51
2021/12/17 05:29:27;;;;;;;12.30;2.87;;;6.50;99.90;;;;;;4951597;29;20276;-51
2021/12/17 05:31:52;;;;;;;4.10;2.77;;;6.60;99.90;;;;;;4951774;29;20280;-51
2021/12/17 05:34:18;;;;;;;11.00;2.90;;;6.60;99.90;;;;;;4951908;29;20989;-50
2021/12/17 05:36:44;;;;;;;6.87;2.90;;;6.50;99.90;;;;;;4951754;29;20664;-50
2021/12/17 05:39:09;;;;;;;9.30;2.97;;;6.50;99.90;;;;;;4951068;29;20214;-50
2021/12/17 05:41:35;;;;;;;9.23;2.60;;;6.40;99.90;;;;;;4949225;29;20198;-50
2021/12/17 05:44:00;;;;;;;7.33;2.93;;;6.50;99.90;;;;;;4950364;29;20224;-51
2021/12/17 05:49:10;;;;;;;6.87;2.40;;;6.40;99.90;;;;;;4950602;28;20209;-51
2021/12/17 05:51:35;;;;;;;4.53;2.17;;;6.40;99.90;;;;;;4950650;28;20951;-51
2021/12/17 05:54:01;;;;;;;7.67;3.40;;;6.40;99.90;;;;;;4950605;29;20197;-51
2021/12/17 05:56:26;;;;;;;9.20;4.50;;;6.40;99.90;;;;;;4953239;28;20237;-50
2021/12/17 05:58:52;;;;;;;5.90;2.37;;;6.50;99.90;;;;;;4956664;28;20251;-52
2021/12/17 06:01:18;;;;;;;7.53;2.70;;;6.50;99.90;;;;;;4956975;28;20822;-51
2021/12/17 06:03:43;;;;;;;11.67;3.20;;;6.40;99.90;;;;;;4954970;29;20193;-52
2021/12/17 06:06:09;;;;;;;7.07;2.73;;;6.40;99.90;;;;;;4954898;29;20193;-52
2021/12/17 06:08:34;;;;;;;6.63;2.17;;;6.40;99.90;;;;;;4954708;29;20198;-49
2021/12/17 06:11:00;;;;;;;7.37;3.10;;;6.40;99.90;;;;;;4954691;28;20666;-50
2021/12/17 06:13:25;;;;;;;4.90;2.60;;;6.40;99.90;;;;;;4952917;29;20197;-51
2021/12/17 06:15:51;;;;;;;5.50;2.30;;;6.40;99.90;;;;;;4954302;28;20202;-50
2021/12/17 06:18:17;;;;;;;5.43;2.27;;;6.40;99.90;;;;;;4954089;28;20205;-50
2021/12/17 06:20:43;;;;;;;6.97;2.33;;;6.40;99.90;;;;;;4954746;29;20182;-50
2021/12/17 06:23:08;;;;;;;7.63;1.80;;;6.30;99.90;;;;;;4952801;29;20441;-50
2021/12/17 06:25:34;;;;;;;3.23;1.60;;;6.30;99.90;;;;;;4954381;29;20208;-50
2021/12/17 06:27:59;;;;;;;4.83;1.93;;;6.30;99.90;;;;;;4954141;29;20673;-50
2021/12/17 06:30:25;;;;;;;6.67;2.20;;;6.30;99.90;;;;;;4954330;29;20186;-50
2021/12/17 06:32:51;;;;;;;4.83;1.93;;;6.30;99.90;;;;;;4954172;29;20193;-50
2021/12/17 06:35:16;;;;;;;4.40;1.83;;;6.20;99.90;;;;;;4953686;29;20672;-50
2021/12/17 06:37:43;;;;;;;5.43;1.83;;;6.20;99.90;;;;;;4953632;29;20304;-50
2021/12/17 06:40:09;;;;;;;8.23;2.80;;;6.20;99.90;;;;;;4954107;29;20229;-50
2021/12/17 06:42:35;;;;;;;6.63;2.43;;;6.20;99.90;;;;;;4952757;29;20425;-50
2021/12/17 06:45:05;;;;;;;7.63;2.83;;;6.20;99.90;;;;;;4954281;28;20914;-50
2021/12/17 06:47:34;;;;;;;6.33;2.30;;;6.30;99.90;;;;;;4953698;29;20229;-51
2021/12/17 06:54:39;;;;;;;9.37;2.60;;;6.20;99.90;;;;;;4953768;28;20469;-52
2021/12/17 06:58:39;;;;;;;5.80;2.60;;;6.20;99.90;;;;;;4953699;29;20449;-50
2021/12/17 07:01:04;;;;;;;5.70;2.80;;;6.20;99.90;;;;;;4953862;29;20433;-50
2021/12/17 07:32:29;;;;;;;18.00;4.93;;;6.10;99.90;;;;;;4953649;29;20429;-50
2021/12/17 07:39:53;;;;;;;12.43;5.50;;;6.10;99.90;;;;;;4953161;28;20421;-50
2021/12/17 07:42:19;;;;;;;14.60;4.63;;;6.10;99.90;;;;;;4952884;29;20433;-51
2021/12/17 07:44:45;;;;;;;13.87;5.10;;;6.10;99.90;;;;;;4952750;29;20458;-50
2021/12/17 07:47:10;;;;;;;13.07;4.87;;;6.10;99.90;;;;;;4952130;29;20879;-50
2021/12/17 07:49:36;;;;;;;20.87;5.30;;;6.10;99.90;;;;;;4952861;29;20245;-51
2021/12/17 07:52:01;;;;;;;14.67;4.77;;;6.10;99.90;;;;;;4952825;28;20233;-51
2021/12/17 07:54:27;;;;;;;12.40;5.00;;;6.10;99.90;;;;;;4952906;29;20186;-51
2021/12/17 07:56:52;;;;;;;15.87;5.20;;;6.10;99.90;;;;;;4952722;29;20321;-52
2021/12/17 07:59:18;;;;;;;15.93;4.47;;;6.20;99.90;;;;;;4952744;29;20194;-52
2021/12/17 08:01:44;;;;;;;10.07;4.73;;;6.20;99.90;;;;;;4952894;28;20194;-51
2021/12/17 08:04:10;;;;;;;11.80;4.90;;;6.20;99.90;;;;;;4952645;29;20272;-50
2021/12/17 08:06:37;;;;;;;15.33;6.10;;;6.20;99.90;;;;;;4953052;29;20417;-52
2021/12/17 08:09:06;;;;;;;15.83;5.50;;;6.20;99.90;;;;;;4952314;28;20426;-51
2021/12/17 08:11:37;;;;;;;10.07;4.40;;;6.20;99.90;;;;;;4952784;29;21062;-50
2021/12/17 08:14:07;;;;;;;16.00;6.67;;;6.20;99.90;;;;;;4952188;28;20516;-51
2021/12/17 08:16:44;;;;;;;13.17;5.33;;;6.20;99.90;;;;;;4952496;29;20537;-50
2021/12/17 08:27:25;;;;;;;16.47;6.20;;;6.20;99.90;;;;;;4952257;29;20422;-50
2021/12/17 08:29:55;;;;;;;13.67;4.90;;;6.20;99.90;;;;;;4952248;28;20425;-50
2021/12/17 08:32:21;;;;;;;13.70;5.40;;;6.20;99.90;;;;;;4948100;29;20809;-51
2021/12/17 08:34:46;;;;;;;10.93;5.10;;;6.20;99.90;;;;;;4952333;28;20516;-50
2021/12/17 08:37:13;;;;;;;12.27;5.37;;;6.20;99.90;;;;;;4950307;29;20213;-50
2021/12/17 08:39:38;;;;;;;15.03;5.40;;;6.20;99.90;;;;;;4952067;28;20186;-50
2021/12/17 08:42:05;;;;;;;11.70;4.80;;;6.30;99.90;;;;;;4952606;29;20445;-51
2021/12/17 08:44:31;;;;;;;11.63;5.00;;;6.20;99.90;;;;;;4951551;29;20225;-50
2021/12/17 08:46:56;;;;;;;11.10;4.73;;;6.30;99.90;;;;;;4951990;28;20508;-50
2021/12/17 08:49:22;;;;;;;10.47;5.07;;;6.30;99.90;;;;;;4952165;28;20371;-51
2021/12/17 08:51:48;;;;;;;15.60;6.03;;;6.20;99.90;;;;;;4951805;29;20239;-50
2021/12/17 08:54:14;;;;;;;10.57;5.63;;;6.30;99.90;;;;;;4952141;28;20436;-51
2021/12/17 08:56:46;;;;;;;13.73;5.90;;;6.30;99.90;;;;;;4951743;28;20257;-54
2021/12/17 08:59:14;;;;;;;19.77;7.17;;;6.20;99.90;;;;;;4951322;28;20190;-51
2021/12/17 09:01:40;;;;;;;11.33;5.93;;;6.30;99.90;;;;;;4951719;28;20437;-50
2021/12/17 09:04:06;;;;;;;12.13;5.97;;;6.30;99.90;;;;;;4951469;29;20814;-50
2021/12/17 09:06:31;;;;;;;17.13;6.13;;;6.30;99.90;;;;;;4951898;29;20780;-50
2021/12/17 09:08:57;;;;;;;15.10;5.50;;;6.40;99.90;;;;;;4951342;29;20197;-50
2021/12/17 09:11:24;;;;;;;13.80;5.60;;;6.40;99.90;;;;;;4937687;29;20201;-50
2021/12/17 09:13:51;;;;;;;11.30;4.80;;;6.40;99.90;;;;;;4951773;29;20440;-53
2021/12/17 09:16:20;;;;;;;7.37;3.70;;;6.40;99.90;;;;;;4950550;28;20564;-50
2021/12/17 09:18:48;;;;;;;5.73;3.17;;;6.50;99.90;;;;;;4951848;29;20911;-50
2021/12/17 09:21:14;;;;;;;3.93;2.20;;;6.50;99.90;;;;;;4950894;28;20548;-50
2021/12/17 09:23:40;;;;;;;3.50;2.07;;;6.40;99.90;;;;;;4951515;29;20594;-50
2021/12/17 09:26:05;;;;;;;3.20;2.40;;;6.40;99.90;;;;;;4951713;29;20425;-50
2021/12/17 09:28:31;;;;;;;2.77;2.07;;;6.40;99.90;;;;;;4951206;29;20774;-51
2021/12/17 09:30:58;;;;;;;4.10;2.50;;;6.40;99.90;;;;;;4952851;28;20206;-51
2021/12/17 09:33:25;;;;;;;6.13;3.50;;;6.40;99.90;;;;;;4954870;28;20958;-53
2021/12/17 09:35:51;;;;;;;5.73;3.10;;;6.40;99.90;;;;;;4955014;29;20445;-52
2021/12/17 09:38:17;;;;;;;6.53;3.47;;;6.40;99.90;;;;;;4955342;28;20436;-50
2021/12/17 09:40:43;;;;;;;5.40;2.80;;;6.40;99.90;;;;;;4954842;29;20607;-50
2021/12/17 09:43:10;;;;;;;5.60;2.70;;;6.40;99.90;;;;;;4955250;28;20201;-50
2021/12/17 09:45:36;;;;;;;5.50;3.03;;;6.40;99.90;;;;;;4954740;29;20446;-50
2021/12/17 09:48:02;;;;;;;10.50;5.60;;;6.40;99.90;;;;;;4953562;29;20445;-50
2021/12/17 09:50:29;;;;;;;15.70;6.70;;;6.50;99.90;;;;;;4954960;28;20488;-51
2021/12/17 09:52:54;;;;;;;20.37;9.10;;;6.60;99.90;;;;;;4955125;29;20418;-51
2021/12/17 09:55:20;;;;;;;21.20;11.37;;;6.60;99.90;;;;;;4955063;29;20563;-49
2021/12/17 09:57:46;;;;;;;19.17;10.80;;;6.60;99.90;;;;;;4954365;29;20292;-51
2021/12/17 10:00:19;;;;;;;20.73;11.10;;;6.50;99.90;;;;;;4954871;29;20809;-51
2021/12/17 10:02:48;;;;;;;16.33;9.03;;;6.40;99.90;;;;;;4954628;29;20288;-51
2021/12/17 10:05:25;;;;;;;13.60;6.00;;;6.40;99.90;;;;;;4954552;29;20440;-50
2021/12/17 10:07:59;;;;;;;15.00;7.33;;;6.40;99.90;;;;;;4954748;29;20509;-50
2021/12/17 10:10:46;;;;;;;10.30;6.83;;;6.40;99.90;;;;;;4954681;28;20452;-51
2021/12/17 10:13:18;;;;;;;17.20;8.40;;;6.40;99.90;;;;;;4935653;29;20493;-50
2021/12/17 10:15:46;;;;;;;13.63;6.87;;;6.40;99.90;;;;;;4950809;29;20464;-50
2021/12/17 10:18:13;;;;;;;9.27;6.20;;;6.40;99.90;;;;;;4954424;28;20480;-51
2021/12/17 10:20:42;;;;;;;12.47;7.03;;;6.40;99.90;;;;;;4954525;28;20413;-51
2021/12/17 10:23:10;;;;;;;15.70;7.50;;;6.40;99.90;;;;;;4954394;29;20488;-51
2021/12/17 10:25:42;;;;;;;10.30;6.57;;;6.40;99.90;;;;;;4954437;28;20413;-51
2021/12/17 10:28:10;;;;;;;13.57;7.53;;;6.40;99.90;;;;;;4953919;29;20508;-51
2021/12/17 10:30:38;;;;;;;14.23;8.00;;;6.40;99.90;;;;;;4954631;29;20409;-50
2021/12/17 10:33:09;;;;;;;16.03;6.57;;;6.40;99.90;;;;;;4953937;29;20430;-51
2021/12/17 10:35:38;;;;;;;13.17;8.20;;;6.40;99.90;;;;;;4953859;28;20437;-50
2021/12/17 10:38:11;;;;;;;14.00;7.93;;;6.40;99.90;;;;;;4953415;29;20472;-50
2021/12/17 10:40:49;;;;;;;12.87;8.37;;;6.50;99.90;;;;;;4954173;28;20425;-52
2021/12/17 10:43:25;;;;;;;13.27;8.87;;;6.50;99.90;;;;;;4953462;28;20429;-50
2021/12/17 10:51:15;;;;;;;13.13;9.17;;;6.40;99.90;;;;;;4954190;28;20507;-51
2021/12/17 10:53:56;;;;;;;13.80;8.87;;;6.40;99.90;;;;;;4954013;28;20476;-54
2021/12/17 10:56:22;;;;;;;15.00;9.23;;;6.50;99.90;;;;;;4953509;28;20501;-51
2021/12/17 10:59:04;;;;;;;15.27;8.60;;;6.50;99.90;;;;;;4953846;29;20428;-51
2021/12/17 11:01:36;;;;;;;17.57;8.90;;;6.50;99.90;;;;;;4953470;28;20432;-52
2021/12/17 11:04:20;;;;;;;13.33;8.20;;;6.60;99.90;;;;;;4953756;28;20433;-51
2021/12/17 11:06:55;;;;;;;14.30;7.90;;;6.60;99.90;;;;;;4952868;29;20913;-51
2021/12/17 11:09:57;;;;;;;14.63;7.60;;;6.50;99.90;;;;;;4953645;28;20426;-52
2021/12/17 11:12:37;;;;;;;18.37;9.00;;;6.60;99.90;;;;;;4893959;29;20441;-51
2021/12/17 11:15:14;;;;;;;15.43;7.80;;;6.60;99.90;;;;;;4938209;29;20433;-51
2021/12/17 11:17:43;;;;;;;14.47;7.43;;;6.70;99.90;;;;;;4952759;29;20501;-50
2021/12/17 11:20:12;;;;;;;14.97;7.87;;;6.60;99.90;;;;;;4953636;28;20904;-51
2021/12/17 11:22:39;;;;;;;14.27;8.40;;;6.60;99.90;;;;;;4953175;29;20430;-53
2021/12/17 11:25:06;;;;;;;13.13;7.77;;;6.60;99.90;;;;;;4953385;28;20496;-51
2021/12/17 11:27:32;;;;;;;14.30;7.97;;;6.60;99.90;;;;;;4952627;29;20429;-51
2021/12/17 11:30:00;;;;;;;12.13;7.10;;;6.60;99.90;;;;;;4953062;29;20440;-51
2021/12/17 11:32:26;;;;;;;11.77;6.40;;;6.70;99.90;;;;;;4952923;28;20870;-52
2021/12/17 11:34:53;;;;;;;12.07;6.87;;;6.70;99.90;;;;;;4951867;29;20524;-52
2021/12/17 11:37:19;;;;;;;11.60;5.70;;;6.80;99.90;;;;;;4949574;29;20224;-53
2021/12/17 11:40:00;;;;;;;13.90;6.33;;;6.90;99.90;;;;;;4955809;28;20427;-51
2021/12/17 11:42:43;;;;;;;13.47;6.43;;;6.80;99.90;;;;;;4953144;29;20532;-50
2021/12/17 11:45:24;;;;;;;11.50;5.90;;;6.90;99.90;;;;;;4952808;29;20437;-50
2021/12/17 11:47:51;;;;;;;12.23;6.40;;;6.90;99.90;;;;;;4953278;28;20437;-53
2021/12/17 11:50:17;;;;;;;16.83;6.33;;;6.90;99.90;;;;;;4952797;28;20465;-51
2021/12/17 11:52:52;;;;;;;10.80;5.93;;;6.90;99.90;;;;;;4952774;28;20441;-50
2021/12/17 11:55:20;;;;;;;11.63;5.80;;;6.90;99.90;;;;;;4952761;29;20437;-50
2021/12/17 11:57:51;;;;;;;13.10;4.90;;;7.00;99.90;;;;;;4953303;29;20469;-50
2021/12/17 12:00:22;;;;;;;9.07;5.30;;;7.00;99.90;;;;;;4952624;29;20425;-50
2021/12/17 12:02:50;;;;;;;9.80;5.07;;;7.00;99.90;;;;;;4952348;29;20433;-51
2021/12/17 12:05:37;;;;;;;12.03;5.27;;;7.00;99.90;;;;;;4953067;28;20837;-50
2021/12/17 12:08:28;;;;;;;8.87;4.27;;;7.00;99.90;;;;;;4953127;28;20433;-51
2021/12/17 12:11:13;;;;;;;13.00;5.70;;;7.00;99.90;;;;;;4952653;29;20895;-51
2021/12/17 12:13:48;;;;;;;11.57;5.70;;;7.10;99.90;;;;;;4952642;28;20773;-51
2021/12/17 12:16:22;;;;;;;10.87;5.77;;;7.10;99.90;;;;;;4952255;29;20475;-51
2021/12/17 12:18:52;;;;;;;11.73;5.63;;;7.10;99.90;;;;;;4951714;28;20436;-51
2021/12/17 12:21:20;;;;;;;12.40;6.93;;;7.10;99.90;;;;;;4952353;28;20509;-51
2021/12/17 12:23:52;;;;;;;15.63;6.70;;;7.20;99.90;;;;;;4952209;29;20919;-52
2021/12/17 12:26:25;;;;;;;22.50;8.50;;;7.10;99.90;;;;;;4952500;28;21057;-51
2021/12/17 12:28:54;;;;;;;13.77;7.70;;;7.10;99.90;;;;;;4952331;28;20434;-51
2021/12/17 12:31:27;;;;;;;18.57;9.10;;;7.10;99.90;;;;;;4952317;29;20432;-52
2021/12/17 12:34:04;;;;;;;21.40;8.50;;;7.10;99.90;;;;;;4952397;28;20429;-51
2021/12/17 12:36:54;;;;;;;18.67;8.73;;;7.20;99.90;;;;;;4951853;29;20464;-50
2021/12/17 12:39:42;;;;;;;21.43;9.80;;;7.20;99.90;;;;;;4952543;28;20768;-51
2021/12/17 12:42:29;;;;;;;25.10;10.07;;;7.10;99.90;;;;;;4949087;29;20465;-51
2021/12/17 12:44:57;;;;;;;20.33;9.33;;;7.10;99.90;;;;;;4951865;29;20433;-50
2021/12/17 12:47:26;;;;;;;20.80;9.20;;;7.10;99.90;;;;;;4951861;29;20453;-51
2021/12/17 12:50:04;;;;;;;20.53;9.43;;;7.10;99.90;;;;;;4948104;28;20527;-50
2021/12/17 12:52:38;;;;;;;21.00;8.60;;;7.20;99.90;;;;;;4951919;29;20826;-51
2021/12/17 12:55:04;;;;;;;20.70;9.07;;;7.20;99.90;;;;;;4952106;29;20981;-51
2021/12/17 12:57:41;;;;;;;19.07;8.33;;;7.20;99.90;;;;;;4951704;29;20559;-50
2021/12/17 13:00:12;;;;;;;16.50;8.40;;;7.20;99.90;;;;;;4951985;29;20288;-51
2021/12/17 13:02:38;;;;;;;18.20;8.90;;;7.20;99.90;;;;;;4951664;29;20583;-50
2021/12/17 13:05:06;;;;;;;19.33;9.10;;;7.30;99.90;;;;;;4954022;28;20416;-50
2021/12/17 13:07:40;;;;;;;21.37;8.93;;;7.30;99.90;;;;;;4956042;28;20508;-50
2021/12/17 13:10:30;;;;;;;24.80;9.23;;;7.30;99.90;;;;;;4955707;29;20425;-51
2021/12/17 13:13:07;;;;;;;18.37;8.80;;;7.40;99.90;;;;;;4955616;28;20443;-50
2021/12/17 13:15:45;;;;;;;23.73;9.30;;;7.40;99.90;;;;;;4955945;28;20533;-52
2021/12/17 13:21:04;;;;;;;16.73;7.27;;;7.40;99.90;;;;;;4955748;28;20425;-52
2021/12/17 13:23:37;;;;;;;19.03;8.67;;;7.50;99.90;;;;;;4955851;28;20432;-52
2021/12/17 13:26:05;;;;;;;26.63;10.97;;;7.40;99.90;;;;;;4955859;29;20443;-51
2021/12/17 13:28:51;;;;;;;19.50;8.10;;;7.50;99.90;;;;;;4955271;28;20429;-51
2021/12/17 13:31:44;;;;;;;16.37;8.00;;;7.50;99.90;;;;;;4955488;29;20837;-51
2021/12/17 13:34:12;;;;;;;15.73;7.67;;;7.50;99.90;;;;;;4936403;29;20427;-52
2021/12/17 13:36:55;;;;;;;18.90;8.73;;;7.50;99.90;;;;;;4954459;28;20473;-51
2021/12/17 13:39:23;;;;;;;16.70;7.77;;;7.50;99.90;;;;;;4955121;28;20441;-51
2021/12/17 13:41:48;;;;;;;14.30;7.20;;;7.50;99.90;;;;;;4954608;29;20811;-50
2021/12/17 13:44:39;;;;;;;18.30;7.37;;;7.50;99.90;;;;;;4955015;28;20430;-53
2021/12/17 13:47:23;;;;;;;16.50;7.00;;;7.50;99.90;;;;;;4955524;29;20229;-51
2021/12/17 13:49:58;;;;;;;17.37;7.47;;;7.50;99.90;;;;;;4954815;28;20650;-50
2021/12/17 13:52:27;;;;;;;15.03;6.30;;;7.50;99.90;;;;;;4955190;29;20827;-51
2021/12/17 13:54:55;;;;;;;15.10;6.90;;;7.50;99.90;;;;;;4954694;28;20500;-51
2021/12/17 13:57:26;;;;;;;14.00;7.00;;;7.60;99.90;;;;;;4954981;29;20493;-50
2021/12/17 13:59:52;;;;;;;15.20;7.17;;;7.60;99.90;;;;;;4955093;28;20918;-52
2021/12/17 14:02:20;;;;;;;14.40;6.27;;;7.60;99.90;;;;;;4954604;29;20937;-53
2021/12/17 14:05:14;;;;;;;12.37;5.90;;;7.60;99.90;;;;;;4955209;28;20517;-51
2021/12/17 14:07:40;;;;;;;8.70;4.73;;;7.60;99.90;;;;;;4954837;29;20430;-50
2021/12/17 14:10:16;;;;;;;8.20;4.90;;;7.70;99.90;;;;;;4954665;29;20433;-50
2021/12/17 14:12:44;;;;;;;12.53;4.53;;;7.70;99.90;;;;;;4954190;29;20840;-52
2021/12/17 14:15:21;;;;;;;9.30;4.47;;;7.70;99.90;;;;;;4954536;28;20421;-50
2021/12/17 14:17:52;;;;;;;9.17;3.87;;;7.70;99.90;;;;;;4953972;28;20469;-51
2021/12/17 14:20:24;;;;;;;8.53;4.60;;;7.70;99.90;;;;;;4954470;28;20473;-51
2021/12/17 14:23:00;;;;;;;7.27;3.40;;;7.70;99.90;;;;;;4954327;29;20450;-50
2021/12/17 14:25:42;;;;;;;5.83;3.27;;;7.80;99.90;;;;;;4954320;28;20485;-50
2021/12/17 14:28:25;;;;;;;7.67;3.33;;;7.80;99.90;;;;;;4954307;28;20446;-52
2021/12/17 14:30:53;;;;;;;6.30;3.70;;;7.80;99.90;;;;;;4954590;28;20437;-51
2021/12/17 14:33:21;;;;;;;6.40;3.90;;;7.80;99.90;;;;;;4953517;28;20471;-52
2021/12/17 14:36:06;;;;;;;6.07;3.30;;;7.80;99.90;;;;;;4954196;28;20787;-52
2021/12/17 14:38:52;;;;;;;6.37;3.27;;;7.90;99.90;;;;;;4954127;29;20462;-50
2021/12/17 14:41:32;;;;;;;5.87;3.70;;;7.90;99.90;;;;;;4954025;29;20437;-50
2021/12/17 14:44:07;;;;;;;8.23;3.90;;;7.90;99.90;;;;;;4953851;29;20452;-50
2021/12/17 14:46:49;;;;;;;5.77;3.70;;;7.90;99.90;;;;;;4954034;28;20435;-50
2021/12/17 15:05:09;;;;;;;8.53;4.60;;;8.00;99.90;;;;;;4934960;29;20815;-50
2021/12/17 15:07:36;;;;;;;14.80;6.90;;;8.00;99.90;;;;;;4935010;29;20414;-50
2021/12/17 15:10:03;;;;;;;15.87;8.00;;;8.00;99.90;;;;;;4935016;29;20430;-50
2021/12/17 15:14:58;;;;;;;16.73;6.50;;;8.00;99.90;;;;;;4954127;29;20496;-50
2021/12/17 15:17:24;;;;;;;11.73;6.97;;;8.10;99.90;;;;;;4954004;28;21181;-51
2021/12/17 15:19:49;;;;;;;14.53;7.07;;;8.00;99.90;;;;;;4953450;29;20449;-50
2021/12/17 15:22:15;;;;;;;14.53;7.00;;;8.00;99.90;;;;;;4953925;28;20648;-50
2021/12/17 15:24:41;;;;;;;15.00;7.50;;;8.00;99.90;;;;;;4953436;29;20269;-50
2021/12/17 15:27:07;;;;;;;12.67;7.17;;;7.90;99.90;;;;;;4953882;28;20194;-51
2021/12/17 15:29:32;;;;;;;13.13;6.60;;;7.90;99.90;;;;;;4952771;28;20552;-50
2021/12/17 15:31:58;;;;;;;12.07;7.07;;;8.00;99.90;;;;;;4953429;29;20410;-50
2021/12/17 15:34:23;;;;;;;9.07;6.57;;;8.00;99.90;;;;;;4953373;28;20208;-50
2021/12/17 15:36:50;;;;;;;13.50;7.30;;;7.90;99.90;;;;;;4953322;29;20214;-51
2021/12/17 15:39:16;;;;;;;17.20;7.63;;;8.00;99.90;;;;;;4953072;28;20181;-50
2021/12/17 15:41:42;;;;;;;11.00;7.20;;;7.90;99.90;;;;;;4951542;28;20451;-50
2021/12/17 15:44:09;;;;;;;12.73;7.93;;;7.90;99.90;;;;;;4953255;29;20193;-51
2021/12/17 15:46:36;;;;;;;13.70;7.80;;;7.90;99.90;;;;;;4953271;29;20808;-51
2021/12/17 15:49:05;;;;;;;12.33;6.70;;;7.90;99.90;;;;;;4953399;29;20432;-50
2021/12/17 15:51:31;;;;;;;10.10;6.23;;;7.80;99.90;;;;;;4953099;29;20461;-54
2021/12/17 15:53:58;;;;;;;13.17;6.93;;;7.80;99.90;;;;;;4952869;28;21070;-50
2021/12/17 15:56:24;;;;;;;11.00;6.20;;;7.80;99.90;;;;;;4953095;29;20974;-51
2021/12/17 15:58:49;;;;;;;11.80;6.77;;;7.70;99.90;;;;;;4953040;28;20410;-51
2021/12/17 16:01:15;;;;;;;15.30;7.50;;;7.70;99.90;;;;;;4952379;28;20738;-51
2021/12/17 16:03:42;;;;;;;11.23;6.57;;;7.60;99.90;;;;;;4952602;28;20186;-50
2021/12/17 16:06:09;;;;;;;14.93;7.30;;;7.60;99.90;;;;;;4952932;28;20661;-53
2021/12/17 16:08:41;;;;;;;14.17;7.83;;;7.70;99.90;;;;;;4952700;29;20473;-50
2021/12/17 16:11:32;;;;;;;16.80;8.43;;;7.60;99.90;;;;;;4952559;29;20489;-51
2021/12/17 16:21:58;;;;;;;22.50;12.23;;;7.60;99.90;;;;;;4952477;28;20456;-51